createdAt,value
2019-03-29T09:27:08.946Z,33.4534
2019-03-29T09:27:39.592Z,31.4697
2019-03-29T09:28:10.581Z,31.7688
2019-03-29T09:28:41.602Z,30.0781
2019-03-29T09:29:12.579Z,30.2795
2019-03-29T09:29:43.589Z,30.8716
2019-03-29T09:30:14.591Z,30.4871
2019-03-29T09:30:45.572Z,30.9998
2019-03-29T09:31:16.617Z,30.9143
2019-03-29T09:31:47.657Z,31.1157
2019-03-29T09:32:18.595Z,31.3171
2019-03-29T09:32:51.558Z,31.2317
2019-03-29T09:33:22.623Z,31.5308
2019-03-29T09:33:53.572Z,31.9275
2019-03-29T09:34:24.591Z,32.1411
2019-03-29T09:34:55.587Z,32.3425
2019-03-29T09:35:26.596Z,33.8135
2019-03-29T09:35:57.585Z,32.8186
2019-03-29T09:36:28.596Z,32.0129
2019-03-29T09:37:00.128Z,35.1929
2019-03-29T09:37:31.603Z,31.6101
2019-03-29T09:38:02.569Z,32.8064
2019-03-29T09:38:33.601Z,32.1106
2019-03-29T09:39:04.583Z,31.5125
2019-03-29T09:39:35.590Z,32.0923
2019-03-29T09:40:06.575Z,31.5002
2019-03-29T09:40:37.640Z,31.9946
2019-03-29T09:41:08.605Z,32.3914
2019-03-29T09:41:39.593Z,32.3059
2019-03-29T09:42:10.590Z,32.4890
2019-03-29T09:42:41.604Z,32.3914
2019-03-29T09:43:12.563Z,31.7993
2019-03-29T09:43:43.599Z,31.2012
2019-03-29T09:44:14.595Z,31.2988
2019-03-29T09:44:45.575Z,31.2988
2019-03-29T09:45:16.574Z,32.0801
2019-03-29T09:45:47.595Z,30.9875
2019-03-29T09:46:18.584Z,31.9824
2019-03-29T09:46:49.582Z,32.5623
2019-03-29T09:47:20.573Z,31.5674
2019-03-29T09:47:51.616Z,33.9478
2019-03-29T09:48:22.585Z,33.4534
2019-03-29T09:48:53.605Z,31.0852
2019-03-29T09:49:24.564Z,33.0566
2019-03-29T09:49:55.626Z,32.8430
2019-03-29T09:50:26.568Z,31.7505
2019-03-29T09:50:57.600Z,30.2612
2019-03-29T09:51:29.286Z,31.0547
2019-03-29T09:52:00.579Z,30.5725
2019-03-29T09:52:31.598Z,31.1707
2019-03-29T09:53:02.445Z,31.5674
2019-03-29T09:56:03.306Z,31.9763
2019-03-29T09:56:49.456Z,32.7942
2019-03-29T09:57:20.318Z,32.0068
2019-03-29T09:57:51.786Z,32.6416
2019-03-29T09:58:24.179Z,34.3018
2019-03-29T09:58:56.255Z,34.9060
2019-03-29T09:59:28.252Z,35.6628
2019-03-29T10:00:00.396Z,36.6272
2019-03-29T10:00:32.189Z,38.5010
2019-03-29T10:35:35.002Z,32.6538
2019-03-29T10:36:05.735Z,32.3547
2019-03-29T10:36:36.765Z,32.1533
2019-03-29T10:38:57.623Z,32.8369
2019-03-29T10:39:28.310Z,31.9397
2019-03-29T10:40:23.607Z,32.8186
2019-03-29T10:53:39.947Z,32.0251
2019-03-29T10:54:10.683Z,32.1228
2019-03-29T10:54:41.708Z,32.0251
2019-03-29T10:55:12.683Z,31.8298
2019-03-29T10:55:43.697Z,31.6284
2019-03-29T10:56:14.681Z,31.6284
2019-03-29T10:56:45.721Z,31.8298
2019-03-29T10:57:16.715Z,32.0251
2019-03-29T10:57:47.703Z,31.9275
2019-03-29T10:58:18.698Z,31.9275
2019-03-29T10:58:58.942Z,32.1228
2019-03-29T10:59:31.756Z,32.0251
2019-03-29T11:00:04.730Z,32.0251
2019-03-29T11:00:37.761Z,31.7261
2019-03-29T11:01:10.734Z,31.9275
2019-03-29T11:01:55.598Z,32.5073
2019-03-29T11:02:11.281Z,31.8115
2019-03-29T11:02:27.292Z,32.1106
2019-03-29T11:02:43.269Z,31.9092
2019-03-29T11:02:59.285Z,31.9092
2019-03-29T11:03:15.320Z,31.8115
2019-03-29T11:03:31.323Z,31.6101
2019-03-29T11:03:47.250Z,31.6101
2019-03-29T11:04:03.293Z,31.6101
2019-03-29T11:04:19.252Z,31.6101
2019-03-29T11:04:35.294Z,31.7139
2019-03-29T11:04:51.271Z,32.9041
2019-03-29T11:05:07.274Z,31.9092
2019-03-29T11:17:22.140Z,31.0181
2019-03-29T11:17:37.871Z,31.4148
2019-03-29T11:17:53.867Z,31.5125
2019-03-29T11:18:09.872Z,31.4148
2019-03-29T11:20:44.255Z,31.2134
2019-03-29T12:32:31.878Z,31.0730
2019-03-29T12:32:47.619Z,31.0730
2019-03-29T12:33:03.623Z,31.0730
2019-03-29T12:33:19.618Z,31.0730
2019-03-29T12:33:35.646Z,30.9753
2019-03-29T12:33:51.622Z,30.9753
2019-03-29T12:34:07.630Z,30.9753
